sensor_id;sensor_type;location;lat;lon;timestamp;temperature;humidity
22469;DHT22;11401;50.792;4.352;2023-12-14T02:43:10;15.30;66.10
22469;DHT22;11401;50.792;4.352;2023-12-14T02:45:38;15.20;66.20
22469;DHT22;11401;50.792;4.352;2023-12-14T02:48:05;15.20;66.30
22469;DHT22;11401;50.792;4.352;2023-12-14T02:50:32;15.20;66.40
22469;DHT22;11401;50.792;4.352;2023-12-14T02:52:59;15.20;66.40
22469;DHT22;11401;50.792;4.352;2023-12-14T02:55:27;15.30;66.40
22469;DHT22;11401;50.792;4.352;2023-12-14T02:57:54;15.20;66.10
22469;DHT22;11401;50.792;4.352;2023-12-14T03:00:21;15.20;66.00
22469;DHT22;11401;50.792;4.352;2023-12-14T03:02:48;15.10;66.40
22469;DHT22;11401;50.792;4.352;2023-12-14T03:05:15;15.10;66.20
22469;DHT22;11401;50.792;4.352;2023-12-14T03:07:42;15.10;66.40
22469;DHT22;11401;50.792;4.352;2023-12-14T03:10:09;15.00;66.10
22469;DHT22;11401;50.792;4.352;2023-12-14T03:12:37;15.00;66.30
22469;DHT22;11401;50.792;4.352;2023-12-14T03:15:04;15.00;66.20
22469;DHT22;11401;50.792;4.352;2023-12-14T03:17:32;15.00;66.70
22469;DHT22;11401;50.792;4.352;2023-12-14T03:19:59;15.00;66.60
22469;DHT22;11401;50.792;4.352;2023-12-14T03:22:26;14.90;66.80
22469;DHT22;11401;50.792;4.352;2023-12-14T03:24:53;14.90;66.70
22469;DHT22;11401;50.792;4.352;2023-12-14T03:27:20;14.90;66.60
22469;DHT22;11401;50.792;4.352;2023-12-14T03:29:49;14.90;66.90
22469;DHT22;11401;50.792;4.352;2023-12-14T03:32:16;14.90;66.90
22469;DHT22;11401;50.792;4.352;2023-12-14T03:34:43;14.90;67.60
22469;DHT22;11401;50.792;4.352;2023-12-14T03:37:10;14.90;66.50
22469;DHT22;11401;50.792;4.352;2023-12-14T03:39:37;14.90;66.70
22469;DHT22;11401;50.792;4.352;2023-12-14T03:42:04;14.90;66.90
22469;DHT22;11401;50.792;4.352;2023-12-14T03:44:31;14.90;66.30
22469;DHT22;11401;50.792;4.352;2023-12-14T03:46:59;14.90;66.10
22469;DHT22;11401;50.792;4.352;2023-12-14T03:49:27;15.00;66.80
22469;DHT22;11401;50.792;4.352;2023-12-14T03:51:54;14.90;65.80
22469;DHT22;11401;50.792;4.352;2023-12-14T03:54:21;14.90;65.90
22469;DHT22;11401;50.792;4.352;2023-12-14T03:56:48;14.90;66.20
22469;DHT22;11401;50.792;4.352;2023-12-14T03:59:15;14.80;66.10
22469;DHT22;11401;50.792;4.352;2023-12-14T04:01:42;14.80;65.60
22469;DHT22;11401;50.792;4.352;2023-12-14T04:04:09;14.70;66.10
22469;DHT22;11401;50.792;4.352;2023-12-14T04:06:36;14.70;66.70
22469;DHT22;11401;50.792;4.352;2023-12-14T04:09:03;14.70;65.70
22469;DHT22;11401;50.792;4.352;2023-12-14T04:11:30;14.60;65.40
22469;DHT22;11401;50.792;4.352;2023-12-14T04:13:58;14.50;65.90
22469;DHT22;11401;50.792;4.352;2023-12-14T04:16:25;14.50;66.60
22469;DHT22;11401;50.792;4.352;2023-12-14T04:18:52;14.50;65.60
22469;DHT22;11401;50.792;4.352;2023-12-14T04:21:19;14.40;65.70
22469;DHT22;11401;50.792;4.352;2023-12-14T04:23:46;14.40;66.50
22469;DHT22;11401;50.792;4.352;2023-12-14T04:26:13;14.40;65.90
22469;DHT22;11401;50.792;4.352;2023-12-14T04:28:41;14.40;66.00
22469;DHT22;11401;50.792;4.352;2023-12-14T04:31:10;14.40;65.90
22469;DHT22;11401;50.792;4.352;2023-12-14T04:33:38;14.30;65.60
22469;DHT22;11401;50.792;4.352;2023-12-14T04:36:05;14.30;65.70
22469;DHT22;11401;50.792;4.352;2023-12-14T04:38:33;14.30;65.70
22469;DHT22;11401;50.792;4.352;2023-12-14T04:41:01;14.30;66.00
22469;DHT22;11401;50.792;4.352;2023-12-14T04:43:28;14.20;65.90
22469;DHT22;11401;50.792;4.352;2023-12-14T04:45:59;14.20;66.30
22469;DHT22;11401;50.792;4.352;2023-12-14T04:48:26;14.10;66.10
22469;DHT22;11401;50.792;4.352;2023-12-14T04:50:53;14.10;66.10
22469;DHT22;11401;50.792;4.352;2023-12-14T04:53:20;14.10;66.90
22469;DHT22;11401;50.792;4.352;2023-12-14T04:55:47;14.10;66.20
22469;DHT22;11401;50.792;4.352;2023-12-14T04:58:14;14.10;66.00
22469;DHT22;11401;50.792;4.352;2023-12-14T05:00:41;14.10;66.00
22469;DHT22;11401;50.792;4.352;2023-12-14T05:03:08;14.10;66.70
22469;DHT22;11401;50.792;4.352;2023-12-14T05:05:35;14.10;66.80
22469;DHT22;11401;50.792;4.352;2023-12-14T05:08:02;14.10;65.90
22469;DHT22;11401;50.792;4.352;2023-12-14T05:10:29;14.10;66.00
22469;DHT22;11401;50.792;4.352;2023-12-14T05:12:59;14.10;65.80
22469;DHT22;11401;50.792;4.352;2023-12-14T05:15:26;14.00;66.20
22469;DHT22;11401;50.792;4.352;2023-12-14T05:17:53;14.00;66.50
22469;DHT22;11401;50.792;4.352;2023-12-14T05:20:20;14.00;66.70
22469;DHT22;11401;50.792;4.352;2023-12-14T05:22:47;14.00;66.30
22469;DHT22;11401;50.792;4.352;2023-12-14T05:25:14;14.10;65.60
22469;DHT22;11401;50.792;4.352;2023-12-14T05:27:41;14.10;65.60
22469;DHT22;11401;50.792;4.352;2023-12-14T05:30:09;14.10;65.30
22469;DHT22;11401;50.792;4.352;2023-12-14T05:32:36;14.10;65.40
22469;DHT22;11401;50.792;4.352;2023-12-14T05:35:04;14.10;65.40
22469;DHT22;11401;50.792;4.352;2023-12-14T05:37:31;14.10;64.90
22469;DHT22;11401;50.792;4.352;2023-12-14T05:39:59;14.00;65.40
22469;DHT22;11401;50.792;4.352;2023-12-14T05:42:26;14.10;65.20
22469;DHT22;11401;50.792;4.352;2023-12-14T05:44:53;14.10;64.70
22469;DHT22;11401;50.792;4.352;2023-12-14T05:47:20;14.00;64.40
22469;DHT22;11401;50.792;4.352;2023-12-14T05:49:47;13.90;64.50
22469;DHT22;11401;50.792;4.352;2023-12-14T05:52:14;13.90;65.70
22469;DHT22;11401;50.792;4.352;2023-12-14T05:54:41;14.00;65.60
22469;DHT22;11401;50.792;4.352;2023-12-14T05:57:08;14.00;65.10
22469;DHT22;11401;50.792;4.352;2023-12-14T05:59:35;14.00;65.90
22469;DHT22;11401;50.792;4.352;2023-12-14T06:02:02;14.00;64.80
22469;DHT22;11401;50.792;4.352;2023-12-14T06:04:29;14.00;65.30
22469;DHT22;11401;50.792;4.352;2023-12-14T06:06:56;14.00;64.50
22469;DHT22;11401;50.792;4.352;2023-12-14T06:09:24;14.00;65.10
22469;DHT22;11401;50.792;4.352;2023-12-14T06:12:03;14.10;65.60
22469;DHT22;11401;50.792;4.352;2023-12-14T06:14:31;14.10;66.10
22469;DHT22;11401;50.792;4.352;2023-12-14T06:16:59;14.20;65.50
22469;DHT22;11401;50.792;4.352;2023-12-14T06:19:26;14.30;64.80
22469;DHT22;11401;50.792;4.352;2023-12-14T06:21:53;14.20;62.40
22469;DHT22;11401;50.792;4.352;2023-12-14T06:24:20;13.90;63.60
22469;DHT22;11401;50.792;4.352;2023-12-14T06:26:49;13.60;64.90
22469;DHT22;11401;50.792;4.352;2023-12-14T06:29:16;13.50;66.20
22469;DHT22;11401;50.792;4.352;2023-12-14T06:31:45;13.60;66.90
22469;DHT22;11401;50.792;4.352;2023-12-14T06:34:12;13.70;66.40
22469;DHT22;11401;50.792;4.352;2023-12-14T06:36:46;13.90;66.70
22469;DHT22;11401;50.792;4.352;2023-12-14T06:39:13;14.00;65.80
22469;DHT22;11401;50.792;4.352;2023-12-14T06:41:42;14.00;65.90
22469;DHT22;11401;50.792;4.352;2023-12-14T06:44:09;14.00;65.00
22469;DHT22;11401;50.792;4.352;2023-12-14T06:46:36;13.90;64.80
22469;DHT22;11401;50.792;4.352;2023-12-14T06:49:03;13.90;65.30
22469;DHT22;11401;50.792;4.352;2023-12-14T06:51:30;13.80;64.70
22469;DHT22;11401;50.792;4.352;2023-12-14T06:53:57;13.80;65.80
22469;DHT22;11401;50.792;4.352;2023-12-14T06:56:24;13.80;65.90
22469;DHT22;11401;50.792;4.352;2023-12-14T06:58:51;13.90;66.00
22469;DHT22;11401;50.792;4.352;2023-12-14T07:01:19;14.20;64.20
22469;DHT22;11401;50.792;4.352;2023-12-14T07:03:46;14.10;64.60
22469;DHT22;11401;50.792;4.352;2023-12-14T07:06:14;14.00;64.60
22469;DHT22;11401;50.792;4.352;2023-12-14T07:08:42;13.90;65.40
22469;DHT22;11401;50.792;4.352;2023-12-14T07:11:10;13.80;65.50
22469;DHT22;11401;50.792;4.352;2023-12-14T07:13:38;13.80;65.20
22469;DHT22;11401;50.792;4.352;2023-12-14T07:16:09;13.80;65.60
22469;DHT22;11401;50.792;4.352;2023-12-14T07:18:41;13.80;66.10
22469;DHT22;11401;50.792;4.352;2023-12-14T07:21:09;13.80;65.30
22469;DHT22;11401;50.792;4.352;2023-12-14T07:23:36;13.80;65.20
22469;DHT22;11401;50.792;4.352;2023-12-14T07:26:04;13.90;65.10
22469;DHT22;11401;50.792;4.352;2023-12-14T07:28:33;13.90;64.30
22469;DHT22;11401;50.792;4.352;2023-12-14T07:31:01;13.80;64.60
22469;DHT22;11401;50.792;4.352;2023-12-14T07:33:28;13.80;64.90
22469;DHT22;11401;50.792;4.352;2023-12-14T07:35:55;13.80;64.80
22469;DHT22;11401;50.792;4.352;2023-12-14T07:38:23;13.80;64.60
22469;DHT22;11401;50.792;4.352;2023-12-14T07:40:51;13.70;64.90
22469;DHT22;11401;50.792;4.352;2023-12-14T07:43:19;13.70;65.20
22469;DHT22;11401;50.792;4.352;2023-12-14T07:45:47;13.70;65.70
22469;DHT22;11401;50.792;4.352;2023-12-14T07:48:14;13.70;65.00
22469;DHT22;11401;50.792;4.352;2023-12-14T07:50:41;13.60;65.60
22469;DHT22;11401;50.792;4.352;2023-12-14T07:53:08;13.70;65.50
22469;DHT22;11401;50.792;4.352;2023-12-14T07:55:35;13.70;65.70
22469;DHT22;11401;50.792;4.352;2023-12-14T07:58:02;13.70;65.40
22469;DHT22;11401;50.792;4.352;2023-12-14T08:00:32;13.70;65.20
22469;DHT22;11401;50.792;4.352;2023-12-14T08:02:59;13.80;65.20
22469;DHT22;11401;50.792;4.352;2023-12-14T08:05:27;13.80;64.90
22469;DHT22;11401;50.792;4.352;2023-12-14T08:07:54;13.80;64.90
22469;DHT22;11401;50.792;4.352;2023-12-14T08:10:22;13.70;65.50
22469;DHT22;11401;50.792;4.352;2023-12-14T08:12:49;13.70;65.50
22469;DHT22;11401;50.792;4.352;2023-12-14T08:15:18;13.70;65.60
22469;DHT22;11401;50.792;4.352;2023-12-14T08:17:45;13.80;65.70
22469;DHT22;11401;50.792;4.352;2023-12-14T08:20:12;13.80;65.30
22469;DHT22;11401;50.792;4.352;2023-12-14T08:22:40;13.80;65.50
22469;DHT22;11401;50.792;4.352;2023-12-14T08:25:13;13.70;65.50
22469;DHT22;11401;50.792;4.352;2023-12-14T08:27:44;13.70;65.70
22469;DHT22;11401;50.792;4.352;2023-12-14T08:30:12;13.70;64.80
22469;DHT22;11401;50.792;4.352;2023-12-14T08:32:39;13.70;65.40
22469;DHT22;11401;50.792;4.352;2023-12-14T08:35:07;13.70;65.30
22469;DHT22;11401;50.792;4.352;2023-12-14T08:37:35;13.70;65.60
22469;DHT22;11401;50.792;4.352;2023-12-14T08:40:05;13.80;65.50
22469;DHT22;11401;50.792;4.352;2023-12-14T08:42:33;13.70;65.00
22469;DHT22;11401;50.792;4.352;2023-12-14T08:45:01;13.70;65.10
22469;DHT22;11401;50.792;4.352;2023-12-14T08:47:28;13.70;65.20
22469;DHT22;11401;50.792;4.352;2023-12-14T08:49:55;13.80;66.10
22469;DHT22;11401;50.792;4.352;2023-12-14T08:52:22;13.80;65.30
22469;DHT22;11401;50.792;4.352;2023-12-14T08:54:49;13.80;64.60
22469;DHT22;11401;50.792;4.352;2023-12-14T10:03:39;14.00;62.60
22469;DHT22;11401;50.792;4.352;2023-12-14T10:06:07;14.00;63.50
22469;DHT22;11401;50.792;4.352;2023-12-14T10:08:34;14.00;63.30
22469;DHT22;11401;50.792;4.352;2023-12-14T10:11:03;14.00;63.00
22469;DHT22;11401;50.792;4.352;2023-12-14T10:13:43;14.00;63.10
22469;DHT22;11401;50.792;4.352;2023-12-14T10:16:10;13.90;63.10
22469;DHT22;11401;50.792;4.352;2023-12-14T10:18:38;14.00;63.40
22469;DHT22;11401;50.792;4.352;2023-12-14T10:21:07;14.00;63.30
22469;DHT22;11401;50.792;4.352;2023-12-14T10:23:45;14.00;63.10
22469;DHT22;11401;50.792;4.352;2023-12-14T10:26:14;14.00;62.50
22469;DHT22;11401;50.792;4.352;2023-12-14T10:28:43;14.00;63.10
22469;DHT22;11401;50.792;4.352;2023-12-14T10:31:10;14.10;62.80
22469;DHT22;11401;50.792;4.352;2023-12-14T10:33:38;14.20;63.10
22469;DHT22;11401;50.792;4.352;2023-12-14T10:36:06;14.20;62.10
22469;DHT22;11401;50.792;4.352;2023-12-14T10:38:34;14.30;62.30
22469;DHT22;11401;50.792;4.352;2023-12-14T10:41:05;14.30;62.40
22469;DHT22;11401;50.792;4.352;2023-12-14T19:09:06;14.20;61.60
22469;DHT22;11401;50.792;4.352;2023-12-14T19:11:33;14.20;62.60
22469;DHT22;11401;50.792;4.352;2023-12-14T19:14:00;14.10;62.00
22469;DHT22;11401;50.792;4.352;2023-12-14T19:16:29;14.20;62.60
22469;DHT22;11401;50.792;4.352;2023-12-14T19:18:57;14.20;62.40
22469;DHT22;11401;50.792;4.352;2023-12-14T19:21:24;14.20;62.10
22469;DHT22;11401;50.792;4.352;2023-12-14T19:23:52;14.20;62.50
22469;DHT22;11401;50.792;4.352;2023-12-14T19:26:23;14.30;62.00
22469;DHT22;11401;50.792;4.352;2023-12-14T19:28:52;14.20;61.40
22469;DHT22;11401;50.792;4.352;2023-12-14T19:31:23;14.20;61.70
22469;DHT22;11401;50.792;4.352;2023-12-14T19:33:50;14.20;62.10
22469;DHT22;11401;50.792;4.352;2023-12-14T19:36:17;14.30;62.30
22469;DHT22;11401;50.792;4.352;2023-12-14T19:38:47;14.30;61.70
22469;DHT22;11401;50.792;4.352;2023-12-14T19:41:19;14.20;61.70
22469;DHT22;11401;50.792;4.352;2023-12-14T19:43:46;14.30;61.90
22469;DHT22;11401;50.792;4.352;2023-12-14T19:46:15;14.40;61.40
22469;DHT22;11401;50.792;4.352;2023-12-14T19:48:42;14.40;61.60
22469;DHT22;11401;50.792;4.352;2023-12-14T19:51:09;14.40;60.60
22469;DHT22;11401;50.792;4.352;2023-12-14T19:53:36;14.30;61.30
22469;DHT22;11401;50.792;4.352;2023-12-14T19:56:08;14.20;61.70
22469;DHT22;11401;50.792;4.352;2023-12-14T19:58:35;14.30;62.10
22469;DHT22;11401;50.792;4.352;2023-12-14T20:01:03;14.30;62.00
22469;DHT22;11401;50.792;4.352;2023-12-14T20:03:35;14.50;61.80
22469;DHT22;11401;50.792;4.352;2023-12-14T20:06:04;14.50;61.50
22469;DHT22;11401;50.792;4.352;2023-12-14T20:08:31;14.60;61.50
22469;DHT22;11401;50.792;4.352;2023-12-14T20:10:58;14.70;61.20
22469;DHT22;11401;50.792;4.352;2023-12-14T20:13:28;14.70;60.50
22469;DHT22;11401;50.792;4.352;2023-12-14T20:15:55;14.70;60.30
22469;DHT22;11401;50.792;4.352;2023-12-14T20:18:22;14.70;60.50
22469;DHT22;11401;50.792;4.352;2023-12-14T20:20:49;14.70;60.80
22469;DHT22;11401;50.792;4.352;2023-12-14T20:23:17;14.80;60.80
22469;DHT22;11401;50.792;4.352;2023-12-14T20:25:44;14.80;59.90
22469;DHT22;11401;50.792;4.352;2023-12-14T20:28:12;14.80;60.30
22469;DHT22;11401;50.792;4.352;2023-12-14T20:30:39;14.90;60.80
22469;DHT22;11401;50.792;4.352;2023-12-14T20:33:06;14.90;61.00
22469;DHT22;11401;50.792;4.352;2023-12-14T20:35:33;15.00;59.60
22469;DHT22;11401;50.792;4.352;2023-12-14T20:38:00;15.00;59.60
22469;DHT22;11401;50.792;4.352;2023-12-14T20:40:29;14.90;59.90
22469;DHT22;11401;50.792;4.352;2023-12-14T20:42:56;14.80;60.00
22469;DHT22;11401;50.792;4.352;2023-12-14T20:45:23;14.80;60.00
22469;DHT22;11401;50.792;4.352;2023-12-14T20:47:50;14.80;60.90
22469;DHT22;11401;50.792;4.352;2023-12-14T20:50:19;14.80;60.40
22469;DHT22;11401;50.792;4.352;2023-12-14T20:52:47;14.80;61.40
22469;DHT22;11401;50.792;4.352;2023-12-14T20:55:14;14.70;61.00
22469;DHT22;11401;50.792;4.352;2023-12-14T20:57:41;14.70;61.80
22469;DHT22;11401;50.792;4.352;2023-12-14T21:00:09;14.70;61.90
22469;DHT22;11401;50.792;4.352;2023-12-14T21:02:39;14.80;62.00
22469;DHT22;11401;50.792;4.352;2023-12-14T21:05:08;14.90;61.60
22469;DHT22;11401;50.792;4.352;2023-12-14T21:07:35;14.80;61.60
22469;DHT22;11401;50.792;4.352;2023-12-14T21:10:03;14.80;61.60
22469;DHT22;11401;50.792;4.352;2023-12-14T21:12:30;14.70;62.30
22469;DHT22;11401;50.792;4.352;2023-12-14T21:14:57;14.70;62.00
22469;DHT22;11401;50.792;4.352;2023-12-14T21:17:24;14.60;61.90
22469;DHT22;11401;50.792;4.352;2023-12-14T21:19:52;14.50;62.50
22469;DHT22;11401;50.792;4.352;2023-12-14T21:22:20;14.50;62.90
22469;DHT22;11401;50.792;4.352;2023-12-14T21:24:47;14.40;63.10
22469;DHT22;11401;50.792;4.352;2023-12-14T21:27:16;14.30;63.30
22469;DHT22;11401;50.792;4.352;2023-12-14T21:30:02;14.30;63.30
22469;DHT22;11401;50.792;4.352;2023-12-14T21:32:29;14.30;64.90
22469;DHT22;11401;50.792;4.352;2023-12-14T21:34:56;14.30;63.70
22469;DHT22;11401;50.792;4.352;2023-12-14T21:37:23;14.20;64.20
22469;DHT22;11401;50.792;4.352;2023-12-14T21:39:50;14.20;64.90
22469;DHT22;11401;50.792;4.352;2023-12-14T21:42:17;14.20;64.20
22469;DHT22;11401;50.792;4.352;2023-12-14T21:44:44;14.10;63.90
22469;DHT22;11401;50.792;4.352;2023-12-14T21:47:11;14.10;64.40
22469;DHT22;11401;50.792;4.352;2023-12-14T21:49:38;14.10;64.70
22469;DHT22;11401;50.792;4.352;2023-12-14T21:52:05;14.10;65.40
22469;DHT22;11401;50.792;4.352;2023-12-14T21:54:32;14.20;64.80
22469;DHT22;11401;50.792;4.352;2023-12-14T21:56:59;14.30;64.20
22469;DHT22;11401;50.792;4.352;2023-12-14T21:59:26;14.40;64.60
22469;DHT22;11401;50.792;4.352;2023-12-14T22:01:53;14.50;63.90
22469;DHT22;11401;50.792;4.352;2023-12-14T22:04:21;14.50;63.80
22469;DHT22;11401;50.792;4.352;2023-12-14T22:06:47;14.60;64.80
22469;DHT22;11401;50.792;4.352;2023-12-14T22:09:15;14.60;63.50
22469;DHT22;11401;50.792;4.352;2023-12-14T22:11:43;14.60;63.20
22469;DHT22;11401;50.792;4.352;2023-12-14T22:14:10;14.50;63.20
22469;DHT22;11401;50.792;4.352;2023-12-14T22:16:37;14.60;63.60
22469;DHT22;11401;50.792;4.352;2023-12-14T22:19:04;14.60;63.40
22469;DHT22;11401;50.792;4.352;2023-12-14T22:21:31;14.60;63.50
22469;DHT22;11401;50.792;4.352;2023-12-14T22:23:58;14.60;63.40
22469;DHT22;11401;50.792;4.352;2023-12-14T22:26:25;14.60;63.40
22469;DHT22;11401;50.792;4.352;2023-12-14T22:28:52;14.70;63.90
22469;DHT22;11401;50.792;4.352;2023-12-14T22:31:19;14.70;63.00
22469;DHT22;11401;50.792;4.352;2023-12-14T22:33:46;14.70;63.30
22469;DHT22;11401;50.792;4.352;2023-12-14T22:36:13;14.60;63.30
22469;DHT22;11401;50.792;4.352;2023-12-14T22:38:40;14.70;63.20
22469;DHT22;11401;50.792;4.352;2023-12-14T22:41:12;14.70;63.50
22469;DHT22;11401;50.792;4.352;2023-12-14T22:43:39;14.80;63.10
22469;DHT22;11401;50.792;4.352;2023-12-14T22:46:06;14.80;63.10
22469;DHT22;11401;50.792;4.352;2023-12-14T22:48:35;14.80;63.00
22469;DHT22;11401;50.792;4.352;2023-12-14T22:51:02;14.70;63.20
22469;DHT22;11401;50.792;4.352;2023-12-14T22:53:30;14.60;63.20
22469;DHT22;11401;50.792;4.352;2023-12-14T22:55:58;14.70;63.30
22469;DHT22;11401;50.792;4.352;2023-12-14T22:58:25;14.70;63.40
22469;DHT22;11401;50.792;4.352;2023-12-14T23:00:52;14.70;63.60
22469;DHT22;11401;50.792;4.352;2023-12-14T23:03:19;14.70;63.20
22469;DHT22;11401;50.792;4.352;2023-12-14T23:05:46;14.80;63.40
22469;DHT22;11401;50.792;4.352;2023-12-14T23:08:13;14.80;63.80
22469;DHT22;11401;50.792;4.352;2023-12-14T23:10:40;14.70;63.40
22469;DHT22;11401;50.792;4.352;2023-12-14T23:13:07;14.70;63.50
22469;DHT22;11401;50.792;4.352;2023-12-14T23:15:34;14.80;63.50
22469;DHT22;11401;50.792;4.352;2023-12-14T23:18:01;14.90;62.90
22469;DHT22;11401;50.792;4.352;2023-12-14T23:20:29;14.90;62.90
22469;DHT22;11401;50.792;4.352;2023-12-14T23:22:56;14.90;62.80
22469;DHT22;11401;50.792;4.352;2023-12-14T23:25:23;14.90;62.70
22469;DHT22;11401;50.792;4.352;2023-12-14T23:27:50;14.90;63.10
22469;DHT22;11401;50.792;4.352;2023-12-14T23:30:18;14.90;63.10
22469;DHT22;11401;50.792;4.352;2023-12-14T23:32:45;15.00;63.50
22469;DHT22;11401;50.792;4.352;2023-12-14T23:35:12;15.20;62.40
22469;DHT22;11401;50.792;4.352;2023-12-14T23:37:39;15.10;61.90
22469;DHT22;11401;50.792;4.352;2023-12-14T23:40:06;15.00;62.20
22469;DHT22;11401;50.792;4.352;2023-12-14T23:42:33;14.90;62.80
22469;DHT22;11401;50.792;4.352;2023-12-14T23:45:00;15.00;63.70
22469;DHT22;11401;50.792;4.352;2023-12-14T23:47:27;15.00;62.40
22469;DHT22;11401;50.792;4.352;2023-12-14T23:49:55;14.90;62.60
22469;DHT22;11401;50.792;4.352;2023-12-14T23:52:22;14.90;62.60
22469;DHT22;11401;50.792;4.352;2023-12-14T23:54:49;14.90;62.90
22469;DHT22;11401;50.792;4.352;2023-12-14T23:57:16;14.90;63.70
22469;DHT22;11401;50.792;4.352;2023-12-14T23:59:43;15.00;63.10
